Time;durP1;ratioP1;P1;durP2;ratioP2;P2;SDS_P1;SDS_P2;PMS_P1;PMS_P2;Temp;Humidity;BMP_temperature;BMP_pressure;BME280_temperature;BME280_humidity;BME280_pressure;Samples;Min_cycle;Max_cycle;Signal;HPM_P1;HPM_P2
2022/03/01 00:01:33;;;;;;;15.33;8.50;;;1.90;94.00;;;;;;5051721;28;20983;-67
2022/03/01 00:03:58;;;;;;;12.70;8.27;;;1.80;94.50;;;;;;5051524;28;20547;-67
2022/03/01 00:06:24;;;;;;;11.40;8.40;;;1.70;95.40;;;;;;5050816;28;20701;-67
2022/03/01 00:08:50;;;;;;;10.70;7.87;;;1.70;95.70;;;;;;5033672;28;20208;-67
2022/03/01 00:11:15;;;;;;;15.57;8.73;;;1.60;96.20;;;;;;5051540;28;20303;-68
2022/03/01 00:13:41;;;;;;;11.67;8.30;;;1.60;96.80;;;;;;5051627;28;20219;-67
2022/03/01 00:16:06;;;;;;;13.67;8.20;;;1.60;96.70;;;;;;5048753;28;20213;-67
2022/03/01 00:18:32;;;;;;;13.13;8.60;;;1.50;96.70;;;;;;5051733;28;20173;-67
2022/03/01 00:20:58;;;;;;;14.93;10.63;;;1.40;97.30;;;;;;5047389;28;20170;-67
2022/03/01 00:23:23;;;;;;;11.80;9.03;;;1.30;98.60;;;;;;5051118;28;20188;-67
2022/03/01 00:25:49;;;;;;;11.67;8.40;;;1.30;97.80;;;;;;5058470;28;20185;-67
2022/03/01 00:28:14;;;;;;;13.70;9.80;;;1.30;97.80;;;;;;5051491;28;20228;-67
2022/03/01 00:30:40;;;;;;;12.53;8.73;;;1.30;98.50;;;;;;5050986;28;20197;-67
2022/03/01 00:33:05;;;;;;;13.83;9.27;;;1.30;97.60;;;;;;5050918;28;20699;-67
2022/03/01 00:35:31;;;;;;;11.97;8.90;;;1.20;98.80;;;;;;5038012;28;20584;-67
2022/03/01 00:37:57;;;;;;;13.07;9.60;;;1.20;98.40;;;;;;5051513;28;20189;-67
2022/03/01 00:40:23;;;;;;;16.73;10.73;;;1.20;99.10;;;;;;5036868;28;20173;-67
2022/03/01 00:42:48;;;;;;;14.10;8.47;;;1.20;98.70;;;;;;5053297;28;20436;-67
2022/03/01 00:45:14;;;;;;;11.63;9.20;;;1.20;98.80;;;;;;5052423;28;20233;-68
2022/03/01 00:47:39;;;;;;;11.13;9.70;;;1.30;97.80;;;;;;5054182;28;20239;-68
2022/03/01 00:50:06;;;;;;;11.63;9.03;;;1.30;97.80;;;;;;5054417;28;20181;-68
2022/03/01 00:52:32;;;;;;;13.50;8.70;;;1.30;98.80;;;;;;5054053;28;20263;-67
2022/03/01 00:54:57;;;;;;;13.77;10.00;;;1.20;99.20;;;;;;5050976;28;20456;-67
2022/03/01 00:57:23;;;;;;;11.70;9.23;;;1.10;99.90;;;;;;5052510;28;20635;-68
2022/03/01 00:59:48;;;;;;;15.87;9.87;;;1.10;99.90;;;;;;5050874;28;20189;-67
2022/03/01 01:02:14;;;;;;;13.43;9.50;;;1.10;99.90;;;;;;5055775;28;20173;-68
2022/03/01 01:04:39;;;;;;;14.90;9.53;;;1.10;99.70;;;;;;5051020;28;20336;-68
2022/03/01 01:07:05;;;;;;;14.17;8.40;;;0.90;99.90;;;;;;5050852;28;20670;-68
2022/03/01 01:09:30;;;;;;;13.77;8.70;;;0.90;99.90;;;;;;5050850;28;20265;-68
2022/03/01 01:11:57;;;;;;;16.77;9.10;;;0.90;99.90;;;;;;5062073;28;20220;-67
2022/03/01 01:14:22;;;;;;;15.57;9.90;;;0.80;99.90;;;;;;5050865;28;20566;-67
2022/03/01 01:16:48;;;;;;;13.00;7.83;;;0.80;99.90;;;;;;5051271;28;20432;-67
2022/03/01 01:19:13;;;;;;;13.10;9.03;;;0.80;99.90;;;;;;5054668;28;20243;-67
2022/03/01 01:24:23;;;;;;;13.33;9.33;;;0.70;99.90;;;;;;5054423;28;20212;-67
2022/03/01 01:26:49;;;;;;;14.93;8.73;;;0.70;99.90;;;;;;5045112;28;20440;-67
2022/03/01 01:29:14;;;;;;;18.80;10.10;;;0.70;99.90;;;;;;5054512;28;20592;-67
2022/03/01 01:31:40;;;;;;;14.83;10.00;;;0.70;99.90;;;;;;5054125;28;20594;-67
2022/03/01 01:34:05;;;;;;;15.20;10.50;;;0.60;99.90;;;;;;5053133;28;20213;-67
2022/03/01 01:36:31;;;;;;;14.97;10.47;;;0.60;99.90;;;;;;5054529;28;20561;-67
2022/03/01 01:38:56;;;;;;;16.30;9.47;;;0.60;99.90;;;;;;5054101;28;20177;-67
2022/03/01 01:41:22;;;;;;;16.77;11.03;;;0.60;99.90;;;;;;5056345;28;20209;-67
2022/03/01 01:43:47;;;;;;;14.53;10.13;;;0.60;99.90;;;;;;5054277;28;20197;-67
2022/03/01 01:46:13;;;;;;;15.93;10.10;;;0.60;99.90;;;;;;5053421;28;20256;-67
2022/03/01 01:48:38;;;;;;;17.90;9.90;;;0.50;99.90;;;;;;5052806;28;20200;-67
2022/03/01 01:51:04;;;;;;;13.00;10.10;;;0.50;99.90;;;;;;5047429;28;20178;-67
2022/03/01 01:53:30;;;;;;;14.00;9.73;;;0.60;99.90;;;;;;5054153;28;20173;-67
2022/03/01 01:55:55;;;;;;;17.60;10.73;;;0.60;99.90;;;;;;5053967;28;20257;-67
2022/03/01 01:58:21;;;;;;;13.97;10.47;;;0.40;99.90;;;;;;5053915;28;20174;-67
2022/03/01 02:00:46;;;;;;;17.00;10.60;;;0.40;99.90;;;;;;5054099;28;20177;-67
2022/03/01 02:03:12;;;;;;;17.20;10.20;;;0.50;99.90;;;;;;5054019;28;20201;-67
2022/03/01 02:05:37;;;;;;;14.77;10.03;;;0.50;99.90;;;;;;5053541;28;20259;-67
2022/03/01 02:08:03;;;;;;;16.07;9.90;;;0.40;99.90;;;;;;5053902;28;20574;-67
2022/03/01 02:10:29;;;;;;;20.47;10.60;;;0.40;99.90;;;;;;5053827;28;20187;-67
2022/03/01 02:12:59;;;;;;;18.03;10.73;;;0.40;99.90;;;;;;5053336;28;20225;-67
2022/03/01 02:15:25;;;;;;;17.17;10.27;;;0.40;99.90;;;;;;5053203;28;20197;-68
2022/03/01 02:17:51;;;;;;;15.40;10.40;;;0.30;99.90;;;;;;5054073;28;20424;-67
2022/03/01 02:20:22;;;;;;;15.40;10.43;;;0.20;99.90;;;;;;5053506;28;20426;-67
2022/03/01 02:22:55;;;;;;;15.30;10.70;;;0.20;99.90;;;;;;5053534;28;20707;-66
2022/03/01 02:25:21;;;;;;;16.97;10.00;;;0.30;99.90;;;;;;5053235;28;20467;-67
2022/03/01 02:27:47;;;;;;;17.90;12.90;;;0.20;99.90;;;;;;5053218;28;20475;-67
2022/03/01 02:30:13;;;;;;;18.77;10.93;;;0.20;99.90;;;;;;5052231;28;20463;-67
2022/03/01 02:32:39;;;;;;;16.20;11.03;;;0.20;99.90;;;;;;5053238;28;20275;-67
2022/03/01 02:35:07;;;;;;;18.17;11.03;;;0.20;99.90;;;;;;5053152;28;20244;-66
2022/03/01 02:37:33;;;;;;;13.33;10.00;;;0.20;99.90;;;;;;5053453;28;21013;-67
2022/03/01 02:39:59;;;;;;;16.73;10.87;;;0.20;99.90;;;;;;5051852;28;20490;-67
2022/03/01 02:42:27;;;;;;;16.83;11.00;;;0.30;99.90;;;;;;5053186;28;20185;-67
2022/03/01 02:44:52;;;;;;;16.87;10.23;;;0.30;99.90;;;;;;5052880;28;20200;-67
2022/03/01 02:47:18;;;;;;;13.97;10.07;;;0.30;99.90;;;;;;5053020;28;20432;-67
2022/03/01 02:49:43;;;;;;;16.17;10.80;;;0.20;99.90;;;;;;5053261;28;20181;-67
2022/03/01 02:52:09;;;;;;;15.47;11.00;;;0.20;99.90;;;;;;5053033;28;20268;-67
2022/03/01 02:54:35;;;;;;;17.70;10.80;;;0.10;99.90;;;;;;5053033;28;20679;-67
2022/03/01 02:57:01;;;;;;;14.27;9.00;;;0.10;99.90;;;;;;5052799;28;20630;-67
2022/03/01 02:59:28;;;;;;;14.53;9.63;;;0.10;99.90;;;;;;5052606;28;20178;-67
2022/03/01 03:01:55;;;;;;;16.53;11.10;;;0.10;99.90;;;;;;5052669;28;20522;-67
2022/03/01 03:04:21;;;;;;;15.50;10.80;;;0.00;99.90;;;;;;5052750;28;21038;-67
2022/03/01 03:06:47;;;;;;;14.07;9.23;;;-0.10;99.90;;;;;;5052081;28;20455;-67
2022/03/01 03:09:13;;;;;;;17.47;10.83;;;-0.10;99.90;;;;;;5052695;28;20184;-67
2022/03/01 03:11:38;;;;;;;14.50;10.60;;;-0.20;99.90;;;;;;5052473;28;20208;-69
2022/03/01 03:14:04;;;;;;;18.40;12.07;;;-0.30;99.90;;;;;;5052321;28;20229;-69
2022/03/01 03:16:30;;;;;;;13.87;10.67;;;-0.30;99.90;;;;;;5052339;28;20174;-67
2022/03/01 03:18:56;;;;;;;15.67;10.90;;;-0.40;99.90;;;;;;5052210;28;20434;-67
2022/03/01 03:21:21;;;;;;;15.60;11.70;;;-0.30;99.90;;;;;;5051167;28;20177;-69
2022/03/01 03:23:47;;;;;;;13.80;9.73;;;-0.30;99.90;;;;;;5052291;28;20194;-69
2022/03/01 03:26:13;;;;;;;17.80;9.90;;;-0.40;99.90;;;;;;5051797;28;20174;-67
2022/03/01 03:28:38;;;;;;;15.27;10.07;;;-0.40;99.90;;;;;;5052685;28;20436;-69
2022/03/01 03:31:04;;;;;;;20.30;11.07;;;-0.40;99.90;;;;;;5034188;28;20547;-69
2022/03/01 03:33:30;;;;;;;17.13;10.90;;;-0.40;99.90;;;;;;5051941;28;20208;-69
2022/03/01 03:35:57;;;;;;;17.87;11.87;;;-0.40;99.90;;;;;;5052121;28;20177;-67
2022/03/01 03:38:24;;;;;;;18.70;9.90;;;-0.40;99.90;;;;;;5049903;28;20178;-67
2022/03/01 03:40:49;;;;;;;13.10;10.33;;;-0.40;99.90;;;;;;5051698;28;20439;-67
2022/03/01 03:43:15;;;;;;;17.70;11.43;;;-0.30;99.90;;;;;;5051880;28;20432;-67
2022/03/01 03:45:40;;;;;;;15.20;11.00;;;-0.40;99.90;;;;;;5051781;28;20197;-67
2022/03/01 03:48:06;;;;;;;16.97;10.93;;;-0.50;99.90;;;;;;5052414;28;20178;-68
2022/03/01 03:50:32;;;;;;;18.03;11.10;;;-0.50;99.90;;;;;;5051493;28;20232;-65
2022/03/01 03:52:57;;;;;;;14.70;10.20;;;-0.50;99.90;;;;;;5051710;28;20213;-66
2022/03/01 03:55:23;;;;;;;17.47;10.83;;;-0.50;99.90;;;;;;5051590;28;20276;-66
2022/03/01 03:57:49;;;;;;;16.20;11.13;;;-0.50;99.90;;;;;;5051613;28;20186;-66
2022/03/01 04:00:17;;;;;;;18.57;11.07;;;-0.50;99.90;;;;;;5051492;28;20478;-66
2022/03/01 04:02:44;;;;;;;14.37;10.53;;;-0.40;99.90;;;;;;5051734;28;20169;-66
2022/03/01 04:05:12;;;;;;;16.33;10.87;;;-0.40;99.90;;;;;;5051315;28;20456;-66
2022/03/01 04:07:39;;;;;;;15.13;9.67;;;-0.40;99.90;;;;;;5051546;28;20436;-66
2022/03/01 04:10:05;;;;;;;16.23;10.60;;;-0.50;99.90;;;;;;5051674;28;20435;-66
2022/03/01 04:12:31;;;;;;;14.77;10.90;;;-0.40;99.90;;;;;;5050864;28;20464;-66
2022/03/01 04:14:57;;;;;;;17.40;10.50;;;-0.40;99.90;;;;;;5051350;28;20796;-66
2022/03/01 04:17:22;;;;;;;15.50;11.73;;;-0.30;99.90;;;;;;5051754;28;20185;-68
2022/03/01 04:19:48;;;;;;;14.27;10.20;;;-0.40;99.90;;;;;;5051230;28;20636;-68
2022/03/01 04:22:13;;;;;;;13.97;10.80;;;-0.40;99.90;;;;;;5051466;28;20234;-66
2022/03/01 04:24:39;;;;;;;13.93;9.37;;;-0.50;99.90;;;;;;5033636;28;20331;-69
2022/03/01 04:27:04;;;;;;;16.77;10.53;;;-0.50;99.90;;;;;;5050871;28;20187;-69
2022/03/01 04:29:30;;;;;;;16.83;10.40;;;-0.50;99.90;;;;;;5051156;28;20223;-69
2022/03/01 04:31:56;;;;;;;19.30;11.47;;;-0.60;99.90;;;;;;5050957;28;20209;-69
2022/03/01 04:34:21;;;;;;;18.93;11.50;;;-0.60;99.90;;;;;;5051531;28;20204;-69
2022/03/01 04:36:47;;;;;;;16.10;10.80;;;-0.60;99.90;;;;;;5050684;28;20170;-69
2022/03/01 04:39:12;;;;;;;17.70;10.60;;;-0.70;99.90;;;;;;5051366;28;20252;-68
2022/03/01 04:41:38;;;;;;;16.93;9.50;;;-0.70;99.90;;;;;;5051326;28;20189;-68
2022/03/01 04:44:05;;;;;;;13.90;10.40;;;-0.70;99.90;;;;;;5051094;28;20201;-68
2022/03/01 04:46:31;;;;;;;12.70;9.33;;;-0.70;99.90;;;;;;5051197;28;20181;-68
2022/03/01 04:48:57;;;;;;;16.07;8.93;;;-0.80;99.90;;;;;;5050930;28;20432;-68
2022/03/01 04:51:22;;;;;;;14.70;10.67;;;-0.80;99.90;;;;;;5050984;28;20466;-69
2022/03/01 04:53:49;;;;;;;19.90;11.30;;;-0.90;99.90;;;;;;5055087;28;20367;-68
2022/03/01 04:56:15;;;;;;;17.13;10.33;;;-0.90;99.90;;;;;;5054837;28;20216;-68
2022/03/01 04:58:41;;;;;;;16.20;10.13;;;-1.00;99.90;;;;;;5055191;28;20447;-68
2022/03/01 05:01:06;;;;;;;14.57;10.87;;;-1.00;99.90;;;;;;5055304;28;20443;-68
2022/03/01 05:03:32;;;;;;;15.70;11.50;;;-1.10;99.90;;;;;;5054360;28;20166;-68
2022/03/01 05:05:57;;;;;;;18.03;10.80;;;-1.10;99.90;;;;;;5054622;28;20174;-68
2022/03/01 05:08:23;;;;;;;15.07;11.93;;;-1.10;99.90;;;;;;5055096;28;20165;-68
2022/03/01 05:10:49;;;;;;;16.27;10.67;;;-1.10;99.90;;;;;;5060174;28;20184;-68
2022/03/01 05:13:14;;;;;;;17.53;11.17;;;-1.10;99.90;;;;;;5054562;28;20193;-69
2022/03/01 05:15:40;;;;;;;17.80;10.50;;;-1.20;99.90;;;;;;5054721;28;20530;-68
2022/03/01 05:18:06;;;;;;;16.40;10.63;;;-1.20;99.90;;;;;;5054711;28;20202;-68
2022/03/01 05:20:31;;;;;;;16.53;11.10;;;-1.20;99.90;;;;;;5036603;28;20170;-69
2022/03/01 05:22:57;;;;;;;17.33;11.90;;;-1.30;99.90;;;;;;5054543;28;20181;-69
2022/03/01 05:25:24;;;;;;;16.43;10.00;;;-1.20;99.90;;;;;;5054551;28;20202;-69
2022/03/01 05:27:51;;;;;;;18.93;11.10;;;-1.20;99.90;;;;;;5054421;28;20264;-69
2022/03/01 05:30:18;;;;;;;17.27;10.27;;;-1.10;99.90;;;;;;5054710;28;20431;-68
2022/03/01 05:32:46;;;;;;;13.13;10.33;;;-1.10;99.90;;;;;;5054452;28;20448;-68
2022/03/01 05:35:14;;;;;;;14.70;10.63;;;-1.10;99.90;;;;;;5054097;28;20517;-68
2022/03/01 05:37:41;;;;;;;17.13;11.03;;;-1.10;99.90;;;;;;5052997;28;20427;-68
2022/03/01 05:40:08;;;;;;;17.80;11.90;;;-1.20;99.90;;;;;;5054249;28;20881;-69
2022/03/01 05:42:34;;;;;;;21.77;10.13;;;-1.10;99.90;;;;;;5054282;28;20852;-68
2022/03/01 05:45:00;;;;;;;19.10;11.37;;;-1.10;99.90;;;;;;5053774;28;20447;-68
2022/03/01 05:47:28;;;;;;;17.17;11.27;;;-1.10;99.90;;;;;;5053901;28;20955;-69
2022/03/01 05:49:55;;;;;;;14.43;10.27;;;-1.10;99.90;;;;;;5053058;28;20178;-68
2022/03/01 05:52:21;;;;;;;13.87;10.43;;;-1.10;99.90;;;;;;5054110;28;20456;-68
2022/03/01 05:54:46;;;;;;;15.90;10.67;;;-1.20;99.90;;;;;;5053655;28;20452;-68
2022/03/01 05:57:12;;;;;;;16.63;11.77;;;-1.20;99.90;;;;;;5054023;28;20451;-68
2022/03/01 05:59:38;;;;;;;19.13;10.57;;;-1.20;99.90;;;;;;5054079;28;20173;-68
2022/03/01 06:02:03;;;;;;;17.03;10.67;;;-1.30;99.90;;;;;;5055040;28;20963;-68
2022/03/01 06:04:29;;;;;;;15.07;10.63;;;-1.30;99.90;;;;;;5054398;28;20731;-68
2022/03/01 06:06:54;;;;;;;17.20;11.03;;;-1.30;99.90;;;;;;5056406;28;20181;-69
2022/03/01 06:09:20;;;;;;;16.33;11.80;;;-1.20;99.90;;;;;;5054130;28;20260;-69
2022/03/01 06:11:45;;;;;;;16.33;10.47;;;-1.20;99.90;;;;;;5053858;28;20339;-69
2022/03/01 06:14:11;;;;;;;27.30;15.70;;;-1.20;99.90;;;;;;5053744;28;20663;-69
2022/03/01 06:16:37;;;;;;;22.03;13.90;;;-1.20;99.90;;;;;;5048636;28;20182;-68
2022/03/01 06:19:02;;;;;;;20.07;13.07;;;-1.20;99.90;;;;;;5055436;28;20166;-68
2022/03/01 06:21:29;;;;;;;22.70;12.50;;;-1.10;99.90;;;;;;5053885;28;20182;-68
2022/03/01 06:23:55;;;;;;;15.40;10.87;;;-1.10;99.90;;;;;;5053628;28;20205;-69
2022/03/01 06:26:21;;;;;;;14.93;10.50;;;-1.10;99.90;;;;;;5053335;28;20440;-69
2022/03/01 06:28:47;;;;;;;16.83;10.10;;;-1.00;99.90;;;;;;5053496;28;20227;-68
2022/03/01 06:31:12;;;;;;;17.53;11.00;;;-1.10;99.90;;;;;;5053267;28;20192;-68
2022/03/01 06:33:38;;;;;;;19.53;11.87;;;-1.10;99.90;;;;;;5053033;28;20568;-68
2022/03/01 06:36:03;;;;;;;15.47;9.97;;;-1.10;99.90;;;;;;5052735;28;20204;-68
2022/03/01 06:38:29;;;;;;;16.30;11.43;;;-1.00;99.90;;;;;;5053580;28;20177;-69
2022/03/01 06:40:56;;;;;;;17.30;11.20;;;-0.80;99.90;;;;;;5053201;28;20169;-68
2022/03/01 06:43:23;;;;;;;19.13;10.77;;;-0.70;99.90;;;;;;5051835;28;20229;-68
2022/03/01 06:45:48;;;;;;;16.23;11.30;;;-0.60;99.90;;;;;;5052435;28;20432;-68
2022/03/01 06:48:14;;;;;;;15.70;11.23;;;-0.40;99.90;;;;;;5053396;28;20428;-67
2022/03/01 06:50:40;;;;;;;20.00;13.50;;;-0.20;99.90;;;;;;5051972;28;20166;-67
2022/03/01 06:53:06;;;;;;;14.57;10.63;;;0.00;99.90;;;;;;5052999;28;20197;-68
2022/03/01 06:55:32;;;;;;;23.27;11.20;;;0.10;99.90;;;;;;5052844;28;20360;-68
2022/03/01 06:57:58;;;;;;;16.50;10.40;;;0.30;99.90;;;;;;5053073;28;20556;-68
2022/03/01 07:00:24;;;;;;;24.57;12.33;;;0.60;99.90;;;;;;5053040;28;20557;-68
2022/03/01 07:02:49;;;;;;;19.87;12.47;;;0.70;99.90;;;;;;5052628;28;20432;-68
2022/03/01 07:05:17;;;;;;;17.37;11.57;;;0.80;99.90;;;;;;5052363;28;20462;-68
2022/03/01 07:07:43;;;;;;;17.20;11.40;;;0.90;99.90;;;;;;5052746;28;20686;-67
2022/03/01 07:10:11;;;;;;;18.33;12.67;;;1.20;99.90;;;;;;5052533;28;20523;-67
2022/03/01 07:12:37;;;;;;;25.37;11.53;;;1.40;99.90;;;;;;5052292;28;20456;-68
2022/03/01 07:15:04;;;;;;;17.33;11.73;;;1.60;99.90;;;;;;5061287;28;20823;-67
2022/03/01 07:17:30;;;;;;;15.67;11.23;;;1.60;99.90;;;;;;5058951;28;20869;-67
2022/03/01 07:19:56;;;;;;;18.30;12.17;;;1.70;99.90;;;;;;5050538;28;20511;-67
2022/03/01 07:22:22;;;;;;;14.17;10.00;;;1.70;99.90;;;;;;5052744;28;20173;-67
2022/03/01 07:24:47;;;;;;;16.77;11.47;;;1.70;99.90;;;;;;5052239;28;20200;-70
2022/03/01 07:27:13;;;;;;;16.57;10.93;;;1.70;99.90;;;;;;5053160;28;20617;-67
2022/03/01 07:29:38;;;;;;;15.37;10.80;;;1.80;99.90;;;;;;5028614;28;20193;-69
2022/03/01 07:32:05;;;;;;;20.77;11.70;;;1.80;99.90;;;;;;5029786;28;20221;-67
2022/03/01 07:34:31;;;;;;;15.00;10.33;;;2.00;99.90;;;;;;5052266;28;20206;-68
2022/03/01 07:36:58;;;;;;;17.33;12.67;;;2.20;99.90;;;;;;5051728;28;21016;-68
2022/03/01 07:39:23;;;;;;;18.70;10.83;;;2.50;99.90;;;;;;5048154;28;20435;-68
2022/03/01 07:41:50;;;;;;;18.90;12.63;;;2.70;99.90;;;;;;5051536;28;20443;-67
2022/03/01 07:44:16;;;;;;;16.53;12.27;;;2.90;99.90;;;;;;5052096;28;20288;-66
2022/03/01 07:46:41;;;;;;;15.17;10.97;;;2.90;98.90;;;;;;5051495;28;20470;-67
2022/03/01 07:49:07;;;;;;;16.87;10.83;;;2.90;98.30;;;;;;5049033;28;20421;-67
2022/03/01 07:51:33;;;;;;;16.03;11.37;;;3.00;98.10;;;;;;5051780;28;20198;-67
2022/03/01 07:53:58;;;;;;;17.73;10.07;;;3.20;97.70;;;;;;5051814;28;20205;-66
2022/03/01 07:56:25;;;;;;;16.60;10.33;;;3.10;97.10;;;;;;5051229;28;20178;-67
2022/03/01 07:58:52;;;;;;;17.70;10.90;;;3.10;96.80;;;;;;5045136;28;20185;-67
2022/03/01 08:01:18;;;;;;;17.37;10.27;;;3.30;96.90;;;;;;5044789;28;20527;-68
2022/03/01 08:03:44;;;;;;;14.93;9.70;;;3.40;96.00;;;;;;5051240;28;20444;-68
2022/03/01 08:06:10;;;;;;;13.20;10.07;;;3.60;95.40;;;;;;5051271;28;20439;-67
2022/03/01 08:08:35;;;;;;;17.33;12.90;;;3.50;95.30;;;;;;5047209;28;20253;-68
2022/03/01 08:11:01;;;;;;;13.53;10.97;;;3.80;95.20;;;;;;5049100;28;20669;-67
2022/03/01 08:13:27;;;;;;;17.53;11.00;;;4.10;94.70;;;;;;5050438;28;20205;-67
2022/03/01 08:15:52;;;;;;;17.27;10.97;;;4.10;94.00;;;;;;5049814;28;20182;-67
2022/03/01 08:18:18;;;;;;;16.27;10.20;;;4.20;94.20;;;;;;5049997;28;20294;-67
2022/03/01 08:20:44;;;;;;;17.50;11.60;;;4.50;93.30;;;;;;5049252;28;20176;-68
2022/03/01 08:23:09;;;;;;;16.13;11.07;;;4.70;92.50;;;;;;5050966;28;20180;-67
2022/03/01 08:25:35;;;;;;;14.33;11.00;;;5.00;92.20;;;;;;5050372;28;20193;-67
2022/03/01 08:28:02;;;;;;;11.80;9.97;;;5.40;91.50;;;;;;5055869;28;20219;-66
2022/03/01 08:30:29;;;;;;;15.73;11.20;;;6.00;90.30;;;;;;5047696;28;20277;-67
2022/03/01 08:32:55;;;;;;;19.70;11.00;;;6.20;88.20;;;;;;5051430;28;20487;-67
2022/03/01 08:35:20;;;;;;;13.50;10.40;;;6.50;85.30;;;;;;5051108;28;20463;-67
2022/03/01 08:37:46;;;;;;;12.80;10.57;;;6.40;83.80;;;;;;5051478;28;20564;-66
2022/03/01 08:40:13;;;;;;;20.13;12.40;;;6.30;81.50;;;;;;5047781;28;20223;-66
2022/03/01 08:42:39;;;;;;;13.93;10.83;;;6.50;81.50;;;;;;5051463;28;20858;-67
2022/03/01 08:45:06;;;;;;;14.27;11.87;;;7.00;79.60;;;;;;5050342;28;20462;-67
2022/03/01 08:47:32;;;;;;;20.00;10.97;;;7.20;78.70;;;;;;5050791;28;20470;-66
2022/03/01 08:49:58;;;;;;;12.90;10.60;;;7.70;76.00;;;;;;5047491;28;20862;-67
2022/03/01 08:52:23;;;;;;;12.90;11.27;;;8.20;73.00;;;;;;5049842;28;20201;-66
2022/03/01 08:54:49;;;;;;;17.87;13.20;;;8.20;72.30;;;;;;5043803;28;20197;-67
2022/03/01 08:57:15;;;;;;;19.77;14.33;;;8.50;71.70;;;;;;5044611;28;20186;-67
2022/03/01 08:59:40;;;;;;;19.07;15.30;;;9.30;69.60;;;;;;5043897;28;20181;-67
2022/03/01 09:02:06;;;;;;;16.50;12.70;;;9.60;64.30;;;;;;5049157;28;20181;-67
2022/03/01 09:04:32;;;;;;;14.33;11.43;;;8.80;65.10;;;;;;5050121;28;20193;-67
2022/03/01 09:06:57;;;;;;;12.03;9.73;;;9.40;63.90;;;;;;5048520;28;20201;-67
2022/03/01 09:09:23;;;;;;;14.03;11.10;;;9.50;65.20;;;;;;5045455;28;20256;-67
2022/03/01 09:11:48;;;;;;;13.90;10.67;;;9.80;61.50;;;;;;5050213;28;20664;-67
2022/03/01 09:14:14;;;;;;;13.23;11.20;;;10.20;60.80;;;;;;5050693;28;20202;-67
2022/03/01 09:16:40;;;;;;;15.13;11.30;;;10.70;58.20;;;;;;5050342;28;20227;-67
2022/03/01 09:19:08;;;;;;;14.73;11.00;;;11.50;57.70;;;;;;5047350;28;20170;-67
2022/03/01 09:21:34;;;;;;;14.50;13.10;;;11.70;56.40;;;;;;5049876;28;20798;-67
2022/03/01 09:23:59;;;;;;;15.70;13.00;;;12.50;55.20;;;;;;5050347;28;20447;-67
2022/03/01 09:26:25;;;;;;;13.73;12.20;;;12.50;52.70;;;;;;5050577;28;20166;-67
2022/03/01 09:28:50;;;;;;;15.00;11.67;;;12.00;52.20;;;;;;5047132;28;20275;-67
2022/03/01 09:31:16;;;;;;;13.63;12.03;;;11.10;52.90;;;;;;5050032;28;20196;-67
2022/03/01 09:33:45;;;;;;;15.43;12.10;;;11.80;52.00;;;;;;5050546;28;20725;-67
2022/03/01 09:36:11;;;;;;;13.60;12.17;;;12.00;52.50;;;;;;5050378;28;20185;-67
2022/03/01 09:38:37;;;;;;;15.50;11.80;;;12.60;50.70;;;;;;5049358;28;20444;-67
2022/03/01 09:41:03;;;;;;;12.47;11.17;;;13.00;50.10;;;;;;5053492;28;20431;-67
2022/03/01 09:43:29;;;;;;;12.20;10.90;;;13.50;48.70;;;;;;5054147;28;20806;-67
2022/03/01 09:45:54;;;;;;;13.83;11.83;;;14.20;46.20;;;;;;5054192;28;20224;-67
2022/03/01 09:48:21;;;;;;;13.10;11.73;;;14.50;44.90;;;;;;5052550;28;20249;-67
2022/03/01 09:50:48;;;;;;;13.13;11.73;;;14.80;43.90;;;;;;5051512;28;20593;-68
2022/03/01 09:53:13;;;;;;;12.80;11.50;;;14.80;42.80;;;;;;5054016;28;20459;-67
2022/03/01 09:55:40;;;;;;;13.47;12.17;;;15.80;42.70;;;;;;5053479;28;20461;-68
2022/03/01 09:58:07;;;;;;;12.77;11.47;;;16.90;40.80;;;;;;5053449;28;20185;-67
2022/03/01 10:00:32;;;;;;;13.00;11.70;;;17.60;39.50;;;;;;5042891;28;20458;-68
2022/03/01 10:02:58;;;;;;;13.67;12.27;;;18.00;38.00;;;;;;5049204;28;20444;-68
2022/03/01 10:05:39;;;;;;;12.80;11.57;;;18.60;36.80;;;;;;5050254;28;20194;-67
2022/03/01 10:08:17;;;;;;;13.27;11.87;;;17.70;36.20;;;;;;5053388;28;20424;-68
2022/03/01 10:10:48;;;;;;;13.60;12.17;;;17.40;36.50;;;;;;5050555;28;20489;-67
2022/03/01 10:13:27;;;;;;;12.63;11.33;;;17.50;36.30;;;;;;5053148;28;20459;-67
2022/03/01 10:16:07;;;;;;;13.43;12.07;;;17.80;35.50;;;;;;5052420;28;20427;-67
2022/03/01 10:18:41;;;;;;;15.67;12.10;;;17.60;35.50;;;;;;5047048;28;21816;-67
2022/03/01 10:21:12;;;;;;;13.33;12.03;;;17.60;36.30;;;;;;5052181;28;20430;-67
2022/03/01 10:23:41;;;;;;;13.53;12.07;;;17.90;35.60;;;;;;5053922;28;20431;-67
2022/03/01 10:26:12;;;;;;;11.90;10.67;;;17.80;35.00;;;;;;5053076;28;20865;-68
2022/03/01 10:28:38;;;;;;;15.40;13.27;;;17.80;35.30;;;;;;5049766;28;21403;-68
2022/03/01 10:31:16;;;;;;;12.63;11.40;;;17.60;35.70;;;;;;5050523;28;20432;-68
2022/03/01 10:34:05;;;;;;;14.03;12.73;;;18.80;34.70;;;;;;5054030;28;20212;-68
2022/03/01 10:36:34;;;;;;;13.47;12.17;;;19.70;33.90;;;;;;5047282;28;20428;-68
2022/03/01 10:39:03;;;;;;;12.70;11.40;;;20.20;32.50;;;;;;5049316;28;20424;-68
2022/03/01 10:41:31;;;;;;;13.90;12.60;;;21.10;31.50;;;;;;5052963;28;20432;-68
2022/03/01 10:43:59;;;;;;;13.43;12.13;;;21.10;31.00;;;;;;5052909;28;20448;-68
2022/03/01 10:46:25;;;;;;;12.40;11.27;;;20.90;31.20;;;;;;5052263;28;20528;-67
2022/03/01 10:49:18;;;;;;;13.20;11.90;;;21.40;30.90;;;;;;5049831;28;20432;-68
2022/03/01 10:52:06;;;;;;;13.40;12.07;;;21.80;30.20;;;;;;5051148;28;20459;-68
2022/03/01 10:54:40;;;;;;;18.77;16.07;;;22.00;29.40;;;;;;5052318;28;20452;-68
2022/03/01 10:57:08;;;;;;;11.87;10.80;;;21.70;29.60;;;;;;5052152;28;21046;-65
2022/03/01 10:59:36;;;;;;;12.10;11.10;;;22.60;29.50;;;;;;5048400;28;20492;-68
2022/03/01 11:02:03;;;;;;;12.90;11.57;;;22.80;28.80;;;;;;5052374;28;20450;-65
2022/03/01 11:04:29;;;;;;;18.93;12.97;;;23.50;28.40;;;;;;5052612;28;20447;-65
2022/03/01 11:06:58;;;;;;;12.40;11.40;;;23.30;27.80;;;;;;5051701;28;20507;-65
2022/03/01 11:09:25;;;;;;;11.87;10.63;;;23.40;27.90;;;;;;5049355;28;20177;-65
2022/03/01 11:11:52;;;;;;;12.27;11.10;;;23.40;27.50;;;;;;5052515;28;21016;-65
2022/03/01 11:14:35;;;;;;;13.20;11.53;;;23.70;27.10;;;;;;5052126;28;20541;-68
2022/03/01 11:17:22;;;;;;;13.30;11.80;;;23.30;26.90;;;;;;5050936;28;20769;-67
2022/03/01 11:20:05;;;;;;;12.93;11.33;;;21.00;28.10;;;;;;5047355;28;20432;-66
2022/03/01 11:22:46;;;;;;;12.20;11.00;;;20.00;28.00;;;;;;5051878;28;20952;-68
2022/03/01 11:25:20;;;;;;;11.13;10.03;;;22.50;27.80;;;;;;5051834;28;20468;-66
2022/03/01 11:27:48;;;;;;;12.10;11.00;;;25.00;26.20;;;;;;5051565;28;20427;-66
2022/03/01 11:30:15;;;;;;;13.40;10.50;;;24.00;25.40;;;;;;5045113;28;20797;-67
2022/03/01 11:32:43;;;;;;;9.93;9.13;;;23.00;25.40;;;;;;5051889;28;20538;-63
2022/03/01 11:35:20;;;;;;;12.43;10.67;;;24.30;25.90;;;;;;5051240;28;20488;-63
2022/03/01 11:38:00;;;;;;;10.93;9.87;;;21.50;27.50;;;;;;5051597;28;20839;-64
2022/03/01 11:40:29;;;;;;;12.20;10.87;;;20.70;29.10;;;;;;5045398;28;20423;-65
2022/03/01 11:43:12;;;;;;;11.63;10.50;;;21.50;28.20;;;;;;5050798;28;20435;-65
2022/03/01 11:45:39;;;;;;;12.03;10.93;;;21.80;28.30;;;;;;5042947;28;20531;-65
2022/03/01 11:48:13;;;;;;;11.03;10.07;;;20.50;28.50;;;;;;5048524;28;20444;-65
2022/03/01 11:50:47;;;;;;;12.67;11.07;;;20.50;29.30;;;;;;5044985;28;20432;-65
2022/03/01 11:53:17;;;;;;;19.60;10.00;;;23.00;30.20;;;;;;5052311;28;20541;-66
2022/03/01 11:55:49;;;;;;;12.70;11.33;;;25.00;25.70;;;;;;5050641;28;20471;-65
2022/03/01 11:58:16;;;;;;;11.60;10.50;;;26.60;24.90;;;;;;5050323;28;20820;-65
2022/03/01 12:00:42;;;;;;;11.30;10.20;;;27.10;24.30;;;;;;5040678;28;20439;-65
2022/03/01 12:03:16;;;;;;;11.07;10.07;;;26.90;23.80;;;;;;5051474;28;20485;-65
2022/03/01 12:05:45;;;;;;;11.97;10.93;;;25.80;24.10;;;;;;5051116;28;20452;-66
2022/03/01 12:08:15;;;;;;;11.93;10.70;;;26.40;23.80;;;;;;5050618;28;20432;-66
2022/03/01 12:10:52;;;;;;;10.97;9.97;;;25.20;23.50;;;;;;5042304;28;20440;-67
2022/03/01 12:13:18;;;;;;;11.37;10.27;;;25.70;24.00;;;;;;5051035;28;20828;-67
2022/03/01 12:15:54;;;;;;;10.47;9.67;;;26.40;22.70;;;;;;5050936;28;20443;-67
2022/03/01 12:18:27;;;;;;;9.40;8.63;;;24.70;22.50;;;;;;5042883;28;20228;-66
2022/03/01 12:20:52;;;;;;;13.37;8.80;;;23.30;23.10;;;;;;5042794;28;20443;-66
2022/03/01 12:23:29;;;;;;;10.77;9.77;;;23.20;23.30;;;;;;5048123;28;20436;-66
2022/03/01 12:25:55;;;;;;;10.47;9.53;;;21.80;24.40;;;;;;5047533;28;20212;-66
2022/03/01 12:28:22;;;;;;;11.30;10.23;;;22.40;24.70;;;;;;5050488;28;20803;-66
2022/03/01 12:30:48;;;;;;;11.10;10.13;;;23.70;23.80;;;;;;5039898;28;20181;-66
2022/03/01 12:33:15;;;;;;;11.13;10.13;;;23.40;24.00;;;;;;5048111;28;20462;-66
2022/03/01 12:35:42;;;;;;;11.50;10.53;;;23.60;24.00;;;;;;5047182;28;20470;-66